Time;durP1;ratioP1;P1;durP2;ratioP2;P2;SDS_P1;SDS_P2;PMS_P1;PMS_P2;Temp;Humidity;BMP_temperature;BMP_pressure;BME280_temperature;BME280_humidity;BME280_pressure;Samples;Min_cycle;Max_cycle;Signal;HPM_P1;HPM_P2
2022/06/01 00:00:43;;;;;;;16.83;3.70;;;;;;;12.98;100.00;101104.00;5146848;27;20039;-84
2022/06/01 00:03:10;;;;;;;11.23;3.60;;;;;;;12.64;100.00;101081.75;5153860;27;20472;-83
2022/06/01 00:05:37;;;;;;;9.98;3.42;;;;;;;12.88;100.00;101100.88;5157694;27;20467;-83
2022/06/01 00:08:04;;;;;;;9.55;2.92;;;;;;;12.97;100.00;101098.78;5144037;27;20067;-83
2022/06/01 00:10:31;;;;;;;6.80;2.72;;;;;;;12.44;100.00;101037.88;5151225;27;20046;-83
2022/06/01 00:12:57;;;;;;;9.38;3.13;;;;;;;12.89;100.00;101083.31;5156876;27;20051;-83
2022/06/01 00:15:27;;;;;;;12.35;2.92;;;;;;;13.11;100.00;101115.69;5156232;27;20047;-83
2022/06/01 00:17:57;;;;;;;6.55;2.40;;;;;;;13.08;100.00;101118.47;5143756;27;20501;-83
2022/06/01 00:20:23;;;;;;;10.73;2.90;;;;;;;13.17;100.00;101105.84;5153478;27;20708;-83
2022/06/01 00:22:50;;;;;;;12.75;3.78;;;;;;;13.18;100.00;101111.03;5154420;27;20050;-83
2022/06/01 00:25:17;;;;;;;10.50;2.85;;;;;;;13.08;100.00;101107.94;5135578;27;20080;-84
2022/06/01 00:27:44;;;;;;;9.10;3.47;;;;;;;12.95;100.00;101101.47;5147310;27;20062;-83
2022/06/01 00:30:13;;;;;;;11.07;3.38;;;;;;;12.92;100.00;101120.00;5154236;27;20103;-84
2022/06/01 00:32:40;;;;;;;10.18;2.92;;;;;;;12.86;100.00;101105.34;5155144;27;20042;-83
2022/06/01 00:35:10;;;;;;;6.72;2.50;;;;;;;13.14;100.00;101122.59;5142042;27;20050;-83
2022/06/01 00:37:37;;;;;;;9.93;2.90;;;;;;;13.20;100.00;101122.34;5140329;27;20503;-83
2022/06/01 00:40:06;;;;;;;11.18;3.00;;;;;;;13.08;100.00;101123.72;5150866;27;20055;-83
2022/06/01 00:42:36;;;;;;;6.93;2.63;;;;;;;13.16;100.00;101126.03;5148823;27;20047;-84
2022/06/01 00:45:03;;;;;;;13.23;3.80;;;;;;;12.80;100.00;101089.84;5146101;27;20039;-84
2022/06/01 00:47:30;;;;;;;15.38;3.33;;;;;;;13.11;100.00;101120.94;5149369;27;20043;-83
2022/06/01 00:50:24;;;;;;;12.88;4.00;;;;;;;13.15;100.00;101123.44;5154106;27;20043;-83
2022/06/01 00:52:59;;;;;;;11.52;3.38;;;;;;;12.98;100.00;101135.53;5134579;27;20043;-84
2022/06/01 00:55:32;;;;;;;8.45;2.72;;;;;;;12.90;100.00;101106.06;5134582;27;20074;-84
2022/06/01 00:58:04;;;;;;;11.57;3.33;;;;;;;12.78;100.00;101117.09;5138630;27;20419;-84
2022/06/01 01:00:33;;;;;;;9.75;3.47;;;;;;;12.87;100.00;101120.22;5150978;27;20130;-84
2022/06/01 01:03:03;;;;;;;8.65;3.10;;;;;;;12.71;100.00;101119.09;5142015;27;20039;-84
2022/06/01 01:05:35;;;;;;;10.75;3.17;;;;;;;13.00;100.00;101131.06;5146638;27;20046;-84
2022/06/01 01:08:04;;;;;;;10.88;3.30;;;;;;;12.92;100.00;101127.88;5141292;27;20052;-84
2022/06/01 01:10:33;;;;;;;11.55;3.08;;;;;;;12.87;100.00;101109.69;5154406;27;20046;-84
2022/06/01 01:13:05;;;;;;;7.13;2.40;;;;;;;13.03;100.00;101124.81;5145942;27;20053;-84
2022/06/01 01:15:38;;;;;;;10.85;3.70;;;;;;;13.11;100.00;101136.72;5135285;27;20050;-84
2022/06/01 01:18:09;;;;;;;13.40;3.40;;;;;;;12.85;100.00;101118.53;5143379;27;20051;-84
2022/06/01 01:21:02;;;;;;;10.23;3.63;;;;;;;12.65;100.00;101093.94;5152089;27;20046;-84
2022/06/01 01:23:47;;;;;;;12.55;4.22;;;;;;;12.98;100.00;101135.53;5139808;27;20469;-85
2022/06/01 01:26:14;;;;;;;11.32;2.80;;;;;;;13.09;100.00;101124.56;5153981;27;20050;-84
2022/06/01 01:28:42;;;;;;;8.50;3.10;;;;;;;12.76;100.00;101116.31;5137603;27;20054;-84
2022/06/01 01:31:16;;;;;;;10.45;3.78;;;;;;;12.97;100.00;101128.56;5155534;27;20400;-84
2022/06/01 01:33:46;;;;;;;11.70;3.72;;;;;;;12.90;100.00;101125.31;5153548;27;20055;-84
2022/06/01 01:36:14;;;;;;;10.95;4.00;;;;;;;12.86;100.00;101130.78;5145048;27;20050;-84
2022/06/01 01:38:41;;;;;;;8.93;3.58;;;;;;;12.86;100.00;101125.53;5150019;27;20047;-82
2022/06/01 01:41:18;;;;;;;8.32;3.00;;;;;;;12.79;100.00;101097.78;5155112;27;20043;-82
2022/06/01 01:44:17;;;;;;;9.95;2.90;;;;;;;12.84;100.00;101133.47;5139197;27;20053;-82
2022/06/01 01:46:47;;;;;;;7.63;3.10;;;;;;;12.80;100.00;101131.91;5141132;27;20050;-83
2022/06/01 01:49:23;;;;;;;10.48;3.08;;;;;;;12.75;100.00;101127.72;5138038;27;20045;-83
2022/06/01 01:51:54;;;;;;;10.30;3.65;;;;;;;12.76;100.00;101119.78;5153575;27;20046;-82
2022/06/01 01:54:48;;;;;;;9.18;3.03;;;;;;;12.87;100.00;101130.72;5138364;27;20039;-82
2022/06/01 01:57:22;;;;;;;10.38;3.20;;;;;;;12.94;100.00;101133.94;5144830;27;20046;-82
2022/06/01 01:59:54;;;;;;;9.43;3.53;;;;;;;13.02;100.00;101131.00;5132628;27;20063;-82
2022/06/01 02:03:04;;;;;;;13.82;4.20;;;;;;;13.02;100.00;101115.22;5148909;27;20129;-82
2022/06/01 02:06:09;;;;;;;10.43;3.65;;;;;;;12.97;100.00;101122.44;5116009;27;20054;-82
2022/06/01 02:08:48;;;;;;;10.20;2.83;;;;;;;12.78;100.00;101135.47;5145285;27;20048;-82
2022/06/01 02:14:19;;;;;;;14.52;6.35;;;;;;;12.41;100.00;101132.56;5154644;27;20476;-83
2022/06/01 02:16:53;;;;;;;12.68;5.60;;;;;;;12.28;100.00;101120.81;5151482;27;20039;-82
2022/06/01 02:19:28;;;;;;;10.05;3.75;;;;;;;12.59;100.00;101141.47;5154611;27;20129;-81
2022/06/01 02:21:55;;;;;;;10.13;4.90;;;;;;;12.55;100.00;101139.88;5133522;27;20043;-81
2022/06/01 02:24:24;;;;;;;10.93;3.88;;;;;;;12.58;100.00;101129.25;5133676;27;20077;-82
2022/06/01 02:26:54;;;;;;;11.98;5.10;;;;;;;12.52;100.00;101145.28;5134968;27;20053;-82
2022/06/01 02:29:34;;;;;;;7.97;3.40;;;;;;;12.30;100.00;101105.84;5144382;27;20046;-83
2022/06/01 02:32:04;;;;;;;12.38;3.55;;;;;;;12.35;100.00;101125.75;5137732;27;20050;-83
2022/06/01 02:34:32;;;;;;;14.63;6.22;;;;;;;12.38;100.00;101148.44;5154373;27;20498;-83
2022/06/01 02:37:04;;;;;;;11.30;3.97;;;;;;;12.12;100.00;101116.13;5145793;27;20049;-83
2022/06/01 02:39:33;;;;;;;10.63;3.88;;;;;;;12.40;100.00;101146.59;5132691;27;20401;-82
2022/06/01 02:42:30;;;;;;;9.82;3.47;;;;;;;12.41;100.00;101139.56;5135998;27;20053;-82
2022/06/01 02:45:06;;;;;;;11.25;4.78;;;;;;;12.39;100.00;101152.75;5142390;27;20042;-83
2022/06/01 02:47:37;;;;;;;10.70;3.67;;;;;;;12.41;100.00;101127.31;5149706;27;20050;-83
2022/06/01 02:50:06;;;;;;;9.43;4.03;;;;;;;12.33;100.00;101150.38;5153869;27;20059;-82
2022/06/01 02:52:34;;;;;;;15.10;4.90;;;;;;;11.97;100.00;101150.84;5145387;27;20043;-83
2022/06/01 02:55:05;;;;;;;9.23;3.95;;;;;;;12.27;100.00;101150.59;5145557;27;20389;-82
2022/06/01 02:57:37;;;;;;;7.95;3.75;;;;;;;12.34;100.00;101138.94;5148902;27;20063;-83
2022/06/01 03:00:08;;;;;;;9.35;4.80;;;;;;;11.91;100.00;101120.41;5153215;27;20060;-83
2022/06/01 03:02:39;;;;;;;11.68;4.80;;;;;;;12.21;100.00;101137.72;5141649;27;20047;-82
2022/06/01 03:05:07;;;;;;;11.63;5.22;;;;;;;12.18;100.00;101115.03;5145215;27;20396;-82
2022/06/01 03:07:34;;;;;;;13.60;6.43;;;;;;;12.39;100.00;101163.25;5140560;27;20053;-82
2022/06/01 03:10:01;;;;;;;11.30;5.20;;;;;;;12.44;100.00;101153.44;5140533;27;20046;-82
2022/06/01 03:12:27;;;;;;;15.77;5.18;;;;;;;12.10;100.00;101141.59;5145666;27;20098;-82
2022/06/01 03:14:54;;;;;;;11.48;5.07;;;;;;;11.94;100.00;101138.69;5147521;27;20070;-82
2022/06/01 03:17:21;;;;;;;12.13;6.07;;;;;;;12.07;100.00;101115.44;5134282;27;20047;-82
2022/06/01 03:19:47;;;;;;;11.63;5.72;;;;;;;11.95;100.00;101148.28;5152427;27;21356;-82
2022/06/01 03:22:14;;;;;;;11.68;5.53;;;;;;;11.95;100.00;101122.03;5154142;27;20365;-83
2022/06/01 03:24:41;;;;;;;10.80;5.88;;;;;;;12.07;100.00;101146.09;5151843;27;20494;-83
2022/06/01 03:27:08;;;;;;;11.82;5.72;;;;;;;11.93;100.00;101113.38;5142387;27;20050;-83
2022/06/01 03:29:34;;;;;;;15.35;7.10;;;;;;;12.34;100.00;101159.94;5138011;27;20058;-83
2022/06/01 03:32:01;;;;;;;13.02;6.10;;;;;;;12.19;100.00;101165.78;5136994;27;20053;-83
2022/06/01 03:34:30;;;;;;;11.43;5.45;;;;;;;12.22;100.00;101157.81;5139050;27;20133;-83
2022/06/01 03:36:57;;;;;;;12.85;6.90;;;;;;;12.06;100.00;101165.41;5131001;27;20053;-82
2022/06/01 03:39:24;;;;;;;18.45;6.40;;;;;;;12.17;100.00;101157.13;5133248;27;20346;-83
2022/06/01 03:41:51;;;;;;;13.35;5.68;;;;;;;11.97;100.00;101163.97;5152246;27;20043;-83
2022/06/01 03:47:10;;;;;;;11.45;5.65;;;;;;;11.94;100.00;101128.19;5149849;27;20047;-83
2022/06/01 03:49:38;;;;;;;14.30;6.78;;;;;;;12.42;100.00;101181.53;5150454;27;20062;-82
2022/06/01 03:52:06;;;;;;;12.02;5.68;;;;;;;12.27;100.00;101147.97;5152424;27;20103;-82
2022/06/01 03:54:32;;;;;;;12.60;6.38;;;;;;;12.15;100.00;101120.44;5139929;27;20078;-83
2022/06/01 03:56:59;;;;;;;16.85;6.95;;;;;;;11.95;100.00;101129.91;5143687;27;20039;-82
2022/06/01 03:59:28;;;;;;;13.35;6.65;;;;;;;12.10;100.00;101148.63;5150826;27;20052;-82
2022/06/01 04:01:59;;;;;;;10.38;5.03;;;;;;;12.37;100.00;101165.09;5138767;27;20060;-82
2022/06/01 04:04:25;;;;;;;11.70;5.20;;;;;;;12.27;100.00;101130.47;5150868;27;20720;-83
2022/06/01 04:06:52;;;;;;;11.25;6.15;;;;;;;12.37;100.00;101158.97;5143236;27;20046;-83
2022/06/01 04:09:19;;;;;;;12.30;6.32;;;;;;;12.11;100.00;101159.06;5142246;27;20049;-83
2022/06/01 04:11:45;;;;;;;11.88;6.55;;;;;;;12.06;100.00;101168.88;5143261;27;20050;-83
2022/06/01 04:14:12;;;;;;;12.85;7.63;;;;;;;11.94;100.00;101174.56;5149403;27;20540;-83
2022/06/01 04:16:39;;;;;;;16.35;9.13;;;;;;;11.68;100.00;101159.72;5145324;27;20724;-83
2022/06/01 04:19:06;;;;;;;15.82;7.53;;;;;;;11.92;100.00;101169.38;5141665;27;20050;-81
2022/06/01 04:21:36;;;;;;;17.58;7.53;;;;;;;11.71;100.00;101165.72;5151352;27;20384;-84
2022/06/01 04:26:51;;;;;;;11.57;6.38;;;;;;;11.69;100.00;101164.91;5152273;27;20042;-82
2022/06/01 04:29:18;;;;;;;13.75;6.43;;;;;;;11.95;100.00;101185.00;5144034;27;20399;-84
2022/06/01 04:31:45;;;;;;;12.25;5.90;;;;;;;11.90;100.00;101188.69;5152508;27;20046;-83
2022/06/01 04:34:12;;;;;;;10.23;5.07;;;;;;;12.03;100.00;101149.75;5156829;27;20480;-84
2022/06/01 04:36:40;;;;;;;10.05;4.55;;;;;;;12.08;100.00;101192.44;5153177;27;20066;-84
2022/06/01 04:39:07;;;;;;;11.07;5.05;;;;;;;12.18;100.00;101204.28;5144827;27;20720;-84
2022/06/01 04:41:34;;;;;;;10.73;5.10;;;;;;;12.09;100.00;101204.63;5155129;27;20051;-83
2022/06/01 04:44:01;;;;;;;15.82;6.97;;;;;;;12.14;100.00;101197.44;5141190;27;20038;-84
2022/06/01 04:46:28;;;;;;;12.63;5.13;;;;;;;11.88;100.00;101154.63;5141467;27;20381;-83
2022/06/01 04:48:55;;;;;;;12.02;6.95;;;;;;;12.02;100.00;101205.78;5149476;27;20047;-83
2022/06/01 04:51:22;;;;;;;9.75;4.40;;;;;;;12.16;100.00;101185.13;5150312;27;20047;-84
2022/06/01 04:53:48;;;;;;;12.32;6.40;;;;;;;12.05;100.00;101203.88;5155194;27;20126;-84
2022/06/01 04:56:15;;;;;;;13.05;5.85;;;;;;;12.19;100.00;101207.78;5154422;27;20476;-83
2022/06/01 04:58:42;;;;;;;13.38;4.80;;;;;;;11.98;100.00;101199.78;5152925;27;20053;-84
2022/06/01 05:01:09;;;;;;;10.57;5.00;;;;;;;11.71;100.00;101194.56;5153172;27;20042;-83
2022/06/01 05:03:35;;;;;;;11.40;5.85;;;;;;;11.72;100.00;101203.28;5143879;27;20111;-83
2022/06/01 05:06:02;;;;;;;14.68;6.93;;;;;;;11.88;100.00;101186.13;5133721;27;20046;-84
2022/06/01 05:08:29;;;;;;;11.63;5.90;;;;;;;11.81;100.00;101209.97;5138131;27;20065;-84
2022/06/01 05:10:56;;;;;;;12.27;5.20;;;;;;;11.97;100.00;101200.72;5154140;27;20043;-84
2022/06/01 05:13:23;;;;;;;11.82;6.13;;;;;;;12.14;100.00;101218.44;5151112;27;20045;-84
2022/06/01 05:15:52;;;;;;;11.80;5.15;;;;;;;12.34;100.00;101229.09;5148619;27;20046;-84
2022/06/01 05:18:19;;;;;;;13.25;5.40;;;;;;;12.48;100.00;101233.84;5150907;27;20074;-84
2022/06/01 05:20:47;;;;;;;13.27;6.72;;;;;;;12.24;100.00;101232.97;5145614;27;20062;-84
2022/06/01 05:23:16;;;;;;;14.20;6.15;;;;;;;12.04;100.00;101225.81;5143573;27;20648;-84
2022/06/01 05:25:45;;;;;;;12.90;6.38;;;;;;;12.06;100.00;101225.75;5145492;27;20400;-84
2022/06/01 05:28:17;;;;;;;12.20;5.50;;;;;;;11.69;100.00;101206.88;5141608;27;20123;-84
2022/06/01 05:30:43;;;;;;;11.07;4.72;;;;;;;12.08;100.00;101211.66;5145658;27;20064;-84
2022/06/01 05:33:10;;;;;;;12.93;5.57;;;;;;;12.15;100.00;101188.69;5147730;27;20057;-84
2022/06/01 05:35:37;;;;;;;10.27;4.72;;;;;;;11.97;100.00;101187.59;5145737;27;20039;-84
2022/06/01 05:38:04;;;;;;;13.60;5.47;;;;;;;12.30;100.00;101230.09;5144005;27;20046;-84
2022/06/01 05:40:31;;;;;;;13.55;6.00;;;;;;;12.46;100.00;101234.78;5150768;27;20047;-83
2022/06/01 05:42:58;;;;;;;11.07;5.75;;;;;;;12.30;100.00;101227.47;5141574;27;20469;-84
2022/06/01 05:45:26;;;;;;;13.73;6.18;;;;;;;12.74;100.00;101229.34;5147062;27;20049;-84
2022/06/01 05:47:53;;;;;;;12.90;6.03;;;;;;;13.63;100.00;101217.88;5142194;27;20043;-84
2022/06/01 05:50:19;;;;;;;13.63;6.07;;;;;;;14.13;100.00;101208.69;5147262;27;20385;-85
2022/06/01 05:52:46;;;;;;;9.43;4.22;;;;;;;14.38;100.00;101210.22;5142387;27;20061;-85
2022/06/01 05:55:13;;;;;;;10.15;5.03;;;;;;;14.84;100.00;101199.28;5144649;27;20047;-85
2022/06/01 05:57:40;;;;;;;10.65;3.97;;;;;;;15.20;100.00;101188.75;5146507;27;20049;-82
2022/06/01 06:00:10;;;;;;;9.38;4.18;;;;;;;15.66;100.00;101215.44;5143669;27;20053;-82
2022/06/01 06:02:39;;;;;;;10.63;4.85;;;;;;;15.95;100.00;101215.75;5141142;27;20463;-82
2022/06/01 06:06:11;;;;;;;10.25;4.32;;;;;;;15.85;100.00;101194.25;5144761;27;20042;-84
2022/06/01 06:07:55;;;;;;;11.88;4.28;;;;;;;15.35;100.00;101201.16;5135848;27;20043;-84
2022/06/01 06:10:22;;;;;;;10.73;4.53;;;;;;;15.12;100.00;101231.31;5147859;27;20559;-83
2022/06/01 06:12:49;;;;;;;10.40;5.00;;;;;;;15.27;100.00;101198.06;5144429;27;20477;-82
2022/06/01 06:15:16;;;;;;;10.35;4.93;;;;;;;15.75;100.00;101199.16;5147271;27;20038;-85
2022/06/01 06:17:46;;;;;;;7.40;3.30;;;;;;;16.54;100.00;101208.19;5147454;27;20112;-84
2022/06/01 06:20:17;;;;;;;11.52;4.68;;;;;;;15.45;100.00;101172.53;5146526;27;20042;-85
2022/06/01 06:22:44;;;;;;;9.40;3.65;;;;;;;15.73;100.00;101201.00;5138749;27;20112;-84
2022/06/01 06:25:10;;;;;;;14.05;3.97;;;;;;;15.67;100.00;101192.53;5142986;27;20480;-84
2022/06/01 06:27:37;;;;;;;8.27;3.30;;;;;;;16.31;100.00;101188.31;5145344;27;20039;-84
2022/06/01 06:30:04;;;;;;;8.40;3.13;;;;;;;15.55;100.00;101184.31;5146444;27;20066;-84
2022/06/01 06:32:32;;;;;;;7.40;2.63;;;;;;;16.65;100.00;101205.78;5143297;27;20047;-84
2022/06/01 06:34:58;;;;;;;8.98;4.10;;;;;;;16.03;100.00;101213.56;5146669;27;20038;-82
2022/06/01 06:37:25;;;;;;;7.55;2.75;;;;;;;16.41;100.00;101200.06;5142625;27;20047;-82
2022/06/01 06:39:52;;;;;;;7.38;2.80;;;;;;;15.80;100.00;101214.75;5141870;27;20050;-83
2022/06/01 06:42:19;;;;;;;9.18;3.20;;;;;;;15.50;100.00;101198.69;5145298;27;20125;-83
2022/06/01 06:44:45;;;;;;;9.38;3.70;;;;;;;15.74;100.00;101230.88;5143829;27;20057;-83
2022/06/01 06:47:12;;;;;;;9.05;3.78;;;;;;;15.22;100.00;101215.03;5144970;27;20038;-81
2022/06/01 06:49:39;;;;;;;10.60;4.43;;;;;;;15.23;100.00;101228.16;5141322;27;20047;-82
2022/06/01 06:52:06;;;;;;;9.48;4.32;;;;;;;15.53;100.00;101244.25;5146207;27;20047;-81
2022/06/01 06:54:34;;;;;;;9.52;4.15;;;;;;;16.35;100.00;101224.19;5142417;27;20051;-81
2022/06/01 06:57:01;;;;;;;9.50;3.45;;;;;;;16.93;100.00;101235.16;5145824;27;20139;-88
2022/06/01 06:59:28;;;;;;;10.13;3.97;;;;;;;15.26;100.00;101253.53;5145013;27;20061;-82
2022/06/01 07:01:55;;;;;;;9.77;4.60;;;;;;;15.57;100.00;101244.94;5148109;27;20051;-81
2022/06/01 07:04:21;;;;;;;8.93;3.63;;;;;;;15.31;100.00;101243.59;5150070;27;20074;-83
2022/06/01 07:06:49;;;;;;;9.90;3.35;;;;;;;16.08;100.00;101253.78;5148379;27;20046;-81
2022/06/01 07:09:15;;;;;;;8.13;3.45;;;;;;;16.68;100.00;101234.72;5147384;27;20089;-82
2022/06/01 07:11:42;;;;;;;9.10;4.03;;;;;;;17.36;100.00;101230.06;5149862;27;20051;-82
2022/06/01 07:14:09;;;;;;;8.27;3.38;;;;;;;16.85;100.00;101238.22;5150103;27;20039;-82
2022/06/01 07:16:36;;;;;;;11.27;4.28;;;;;;;17.37;100.00;101240.56;5145858;27;20115;-81
2022/06/01 07:19:06;;;;;;;8.68;3.63;;;;;;;16.40;100.00;101245.94;5142934;27;20050;-82
2022/06/01 07:21:36;;;;;;;8.40;3.85;;;;;;;16.96;100.00;101249.06;5138152;27;20043;-81
2022/06/01 07:24:05;;;;;;;7.18;2.85;;;;;;;18.18;100.00;101245.47;5141122;27;20047;-82
2022/06/01 07:26:42;;;;;;;7.47;2.70;;;;;;;18.33;100.00;101246.31;5130979;27;20043;-81
2022/06/01 07:29:10;;;;;;;10.70;4.45;;;;;;;17.35;98.96;101266.28;5150711;27;20045;-82
2022/06/01 07:31:36;;;;;;;9.63;4.03;;;;;;;17.01;100.00;101260.22;5151670;27;20064;-81
2022/06/01 07:34:04;;;;;;;10.40;3.42;;;;;;;17.45;100.00;101262.13;5151085;27;20074;-81
2022/06/01 07:36:32;;;;;;;8.38;3.22;;;;;;;17.66;100.00;101264.47;5151096;27;20384;-81
2022/06/01 07:44:35;;;;;;;7.30;2.78;;;;;;;18.91;92.50;101275.44;5143252;27;20051;-82
2022/06/01 07:47:02;;;;;;;6.88;2.58;;;;;;;18.01;94.04;101272.16;5148693;27;20047;-81
2022/06/01 07:49:49;;;;;;;11.20;4.30;;;;;;;17.07;99.44;101261.69;5131552;27;20051;-81
2022/06/01 07:52:35;;;;;;;10.30;2.90;;;;;;;18.32;96.04;101270.25;5144397;27;20053;-80
2022/06/01 07:55:03;;;;;;;7.68;2.30;;;;;;;17.45;96.37;101248.88;5138305;27;20055;-81
2022/06/01 07:57:30;;;;;;;8.93;2.58;;;;;;;17.49;99.49;101276.03;5143872;27;20057;-81
2022/06/01 07:59:57;;;;;;;7.97;2.67;;;;;;;16.73;100.00;101267.97;5147843;27;20043;-81
2022/06/01 08:02:23;;;;;;;9.23;3.50;;;;;;;16.38;100.00;101287.47;5151815;27;20051;-81
2022/06/01 08:04:50;;;;;;;10.35;3.50;;;;;;;16.07;100.00;101282.91;5137879;27;20051;-84
2022/06/01 08:07:17;;;;;;;7.90;3.03;;;;;;;16.87;100.00;101268.09;5143129;27;20043;-84
2022/06/01 08:09:44;;;;;;;12.18;4.43;;;;;;;17.20;100.00;101267.13;5144892;27;20051;-83
2022/06/01 08:14:56;;;;;;;9.38;3.00;;;;;;;16.81;100.00;101284.28;5153492;27;20055;-84
2022/06/01 08:17:22;;;;;;;7.75;2.45;;;;;;;17.03;100.00;101276.03;5154426;27;20404;-83
2022/06/01 08:19:49;;;;;;;8.35;3.40;;;;;;;17.78;97.22;101278.78;5152940;27;20038;-84
2022/06/01 08:22:16;;;;;;;7.13;2.42;;;;;;;17.10;100.00;101273.88;5146058;27;20048;-83
2022/06/01 08:24:43;;;;;;;9.25;3.05;;;;;;;16.67;100.00;101277.94;5142125;27;20047;-83
2022/06/01 08:27:10;;;;;;;7.18;3.00;;;;;;;16.50;100.00;101289.44;5142754;27;20053;-83
2022/06/01 08:29:37;;;;;;;8.32;2.80;;;;;;;17.38;90.90;101299.63;5155283;27;20043;-84
2022/06/01 08:32:05;;;;;;;7.13;2.45;;;;;;;17.35;93.74;101281.28;5148485;27;20142;-83
2022/06/01 08:34:32;;;;;;;8.38;2.42;;;;;;;17.16;89.21;101292.94;5146503;27;20047;-83
2022/06/01 08:36:59;;;;;;;5.72;1.92;;;;;;;16.28;92.69;101299.44;5150448;27;20041;-84
2022/06/01 08:39:25;;;;;;;7.00;2.08;;;;;;;17.11;93.28;101283.53;5156934;27;20051;-83
2022/06/01 08:41:55;;;;;;;7.05;2.45;;;;;;;17.50;89.36;101271.63;5144869;27;20047;-83
2022/06/01 08:44:35;;;;;;;9.10;2.65;;;;;;;17.93;86.89;101293.78;5155784;27;20078;-83
2022/06/01 08:47:08;;;;;;;6.38;1.90;;;;;;;18.58;82.10;101280.09;5141346;27;20129;-84
2022/06/01 08:49:39;;;;;;;7.22;2.13;;;;;;;18.93;78.32;101286.81;5141650;27;20059;-84
2022/06/01 08:52:07;;;;;;;7.97;2.10;;;;;;;18.83;79.48;101283.03;5156278;27;20828;-83
2022/06/01 08:54:34;;;;;;;10.93;2.78;;;;;;;19.17;74.28;101268.44;5140234;27;20125;-83
2022/06/01 08:57:09;;;;;;;6.85;1.70;;;;;;;18.93;73.60;101284.16;5144135;27;20042;-83
2022/06/01 08:59:49;;;;;;;7.40;2.00;;;;;;;18.38;71.86;101289.31;5153164;27;20407;-83
2022/06/01 09:02:38;;;;;;;6.40;1.90;;;;;;;18.42;73.80;101291.78;5153130;27;20050;-84
2022/06/01 09:05:11;;;;;;;7.05;2.25;;;;;;;18.06;75.05;101274.50;5135206;27;20051;-84
2022/06/01 09:07:47;;;;;;;4.40;1.73;;;;;;;18.90;73.85;101294.97;5152181;27;20085;-83
2022/06/01 09:10:20;;;;;;;6.80;1.92;;;;;;;18.91;73.39;101301.97;5147824;27;20053;-84
2022/06/01 09:13:00;;;;;;;7.75;1.90;;;;;;;19.10;73.35;101296.34;5134683;27;20055;-83
2022/06/01 09:15:29;;;;;;;5.18;1.58;;;;;;;18.34;72.35;101279.84;5147333;27;20058;-84
2022/06/01 09:17:56;;;;;;;7.25;1.70;;;;;;;17.95;70.98;101299.84;5149284;27;20049;-84
2022/06/01 09:23:13;;;;;;;6.43;1.95;;;;;;;18.32;66.08;101291.47;5151715;27;20047;-83
2022/06/01 09:25:50;;;;;;;4.72;1.45;;;;;;;18.89;66.62;101290.59;5141532;27;20051;-83
2022/06/01 09:28:23;;;;;;;4.88;1.50;;;;;;;18.03;68.13;101275.56;5149190;27;20412;-83
2022/06/01 09:31:01;;;;;;;;;;;;;;;18.29;67.76;101305.78;5154573;27;20053;-83
2022/06/01 09:33:29;;;;;;;5.30;1.55;;;;;;;18.60;68.79;101303.88;5154225;27;19919;-83
2022/06/01 09:36:06;;;;;;;6.13;1.42;;;;;;;18.63;70.51;101290.44;5142733;27;20050;-83
2022/06/01 09:38:51;;;;;;;6.68;1.70;;;;;;;19.58;67.36;101299.38;5148000;27;20046;-84
2022/06/01 09:41:21;;;;;;;9.75;1.92;;;;;;;19.43;64.72;101298.59;5133748;27;20051;-83
2022/06/01 09:44:06;;;;;;;6.85;1.90;;;;;;;19.76;66.25;101293.81;5153811;27;20045;-84
2022/06/01 09:46:36;;;;;;;4.80;1.50;;;;;;;19.86;66.09;101294.91;5152067;27;20457;-84
2022/06/01 09:49:51;;;;;;;4.85;1.35;;;;;;;19.29;64.10;101298.66;5155114;27;20048;-83
2022/06/01 09:52:26;;;;;;;3.47;1.30;;;;;;;19.70;62.07;101292.38;5130882;27;20047;-83
2022/06/01 09:55:06;;;;;;;5.15;1.60;;;;;;;19.25;63.82;101302.47;5115169;27;20043;-83
2022/06/01 09:57:37;;;;;;;4.25;1.50;;;;;;;18.15;63.69;101279.25;5145038;27;20043;-84
2022/06/01 10:06:33;;;;;;;4.80;1.40;;;;;;;18.49;70.79;101290.44;5133975;27;20046;-84
2022/06/01 10:09:11;;;;;;;7.78;2.00;;;;;;;18.11;67.85;101270.63;5143140;27;20039;-83
2022/06/01 10:11:43;;;;;;;4.95;1.42;;;;;;;18.06;72.17;101298.34;5154055;27;20050;-83
2022/06/01 10:14:15;;;;;;;5.30;1.70;;;;;;;18.26;72.51;101297.16;5155028;27;20053;-83
2022/06/01 10:16:45;;;;;;;4.50;1.48;;;;;;;18.39;68.89;101295.44;5154160;27;20053;-83
2022/06/01 10:19:16;;;;;;;4.20;1.45;;;;;;;18.24;67.76;101291.94;5155299;27;20137;-84
2022/06/01 10:22:18;;;;;;;3.38;1.23;;;;;;;18.26;62.42;101298.00;5152629;27;20536;-83
2022/06/01 10:25:01;;;;;;;6.97;1.48;;;;;;;17.45;60.62;101270.06;5135958;27;20055;-84
2022/06/01 10:27:31;;;;;;;3.88;1.10;;;;;;;18.24;61.97;101299.03;5133684;27;20047;-83
2022/06/01 10:30:16;;;;;;;5.15;1.20;;;;;;;18.54;56.96;101260.03;5147570;27;20453;-83
2022/06/01 10:32:50;;;;;;;6.00;1.40;;;;;;;18.93;57.13;101287.66;5146144;27;20047;-83
2022/06/01 10:35:44;;;;;;;3.95;1.40;;;;;;;18.70;55.84;101289.09;5135309;27;20051;-83
2022/06/01 10:38:15;;;;;;;5.55;1.42;;;;;;;18.94;58.38;101293.81;5146143;27;20095;-83
2022/06/01 10:41:03;;;;;;;4.78;1.40;;;;;;;19.46;57.39;101293.09;5142484;27;20043;-83
2022/06/01 10:43:50;;;;;;;4.70;1.40;;;;;;;19.97;58.14;101295.00;5138143;27;20130;-83
2022/06/01 10:46:34;;;;;;;6.93;1.67;;;;;;;19.39;60.04;101277.63;5153600;27;20057;-83
2022/06/01 10:49:12;;;;;;;3.28;1.08;;;;;;;20.06;58.43;101290.88;5138943;27;20524;-84
2022/06/01 10:51:39;;;;;;;4.22;1.20;;;;;;;19.85;56.74;101294.06;5143102;27;20494;-83
2022/06/01 10:54:36;;;;;;;3.55;1.00;;;;;;;19.79;52.69;101290.94;5151119;27;20624;-83
2022/06/01 10:57:09;;;;;;;2.97;1.00;;;;;;;20.01;53.27;101277.91;5148422;27;20053;-84
2022/06/01 10:59:38;;;;;;;4.07;1.13;;;;;;;19.77;52.65;101275.13;5140502;27;20114;-84
2022/06/01 11:02:39;;;;;;;3.25;1.02;;;;;;;20.23;50.01;101281.72;5137204;27;20047;-84
2022/06/01 11:05:13;;;;;;;4.53;1.08;;;;;;;20.44;50.66;101277.56;5139902;27;20043;-83
2022/06/01 11:07:55;;;;;;;5.28;1.27;;;;;;;20.18;52.67;101287.34;5140626;27;20066;-84
2022/06/01 11:10:57;;;;;;;5.95;1.55;;;;;;;19.08;57.02;101303.53;5139091;27;20062;-84
2022/06/01 11:13:57;;;;;;;5.47;1.50;;;;;;;18.76;55.56;101299.31;5142040;27;20050;-83
2022/06/01 11:16:43;;;;;;;5.78;1.58;;;;;;;19.13;55.60;101298.78;5149915;27;20086;-83
2022/06/01 11:19:41;;;;;;;6.70;1.70;;;;;;;19.58;63.51;101319.78;5152042;27;20047;-84
2022/06/01 11:22:32;;;;;;;6.68;1.77;;;;;;;19.59;69.39;101314.34;5144026;27;20393;-84
2022/06/01 11:25:03;;;;;;;7.05;1.90;;;;;;;19.59;69.03;101321.50;5135083;27;20047;-83
2022/06/01 11:27:49;;;;;;;5.22;1.80;;;;;;;19.50;73.45;101315.81;5151365;27;20053;-83
2022/06/01 11:30:20;;;;;;;6.00;1.98;;;;;;;19.65;72.10;101313.94;5139580;27;20042;-84
2022/06/01 11:33:02;;;;;;;7.30;2.17;;;;;;;19.34;73.85;101317.78;5152478;27;20053;-84
2022/06/01 11:35:38;;;;;;;9.40;2.25;;;;;;;18.86;77.99;101309.38;5132518;27;20051;-84
2022/06/01 11:38:09;;;;;;;7.57;2.33;;;;;;;17.93;86.32;101322.94;5146307;27;20110;-84
2022/06/01 11:40:54;;;;;;;7.05;1.90;;;;;;;18.92;87.06;101312.47;5139160;27;20047;-84
2022/06/01 11:43:29;;;;;;;7.03;2.25;;;;;;;19.11;83.94;101321.94;5151717;27;20125;-84
2022/06/01 11:46:02;;;;;;;6.97;2.13;;;;;;;18.63;86.16;101302.81;5143129;27;20043;-84
2022/06/01 11:48:35;;;;;;;8.50;2.35;;;;;;;18.07;86.50;101297.41;5148117;27;20103;-84
2022/06/01 11:51:16;;;;;;;8.20;2.13;;;;;;;17.79;89.70;101312.25;5140256;27;20053;-84
2022/06/01 11:54:05;;;;;;;9.38;2.45;;;;;;;17.63;94.29;101322.91;5153444;27;20047;-84
2022/06/01 11:56:47;;;;;;;8.35;2.25;;;;;;;17.32;97.04;101322.03;5151655;27;20129;-84
2022/06/01 11:59:28;;;;;;;6.55;2.17;;;;;;;16.92;100.00;101320.75;5138657;27;20134;-84
2022/06/01 12:02:40;;;;;;;7.30;2.22;;;;;;;17.71;95.50;101303.94;5152881;27;20061;-85
2022/06/01 12:05:12;;;;;;;10.43;2.28;;;;;;;17.90;91.08;101309.88;5145636;27;20311;-85